createdAt,value
2023-02-18T00:02:14.891Z,45.53
2023-02-18T00:07:38.248Z,45.35
2023-02-18T00:13:01.767Z,45.52
2023-02-18T00:18:23.574Z,45.31
2023-02-18T00:23:45.389Z,45.60
2023-02-18T00:29:07.202Z,45.70
2023-02-18T00:34:28.997Z,45.78
2023-02-18T00:39:50.866Z,45.75
2023-02-18T00:45:12.704Z,45.43
2023-02-18T00:50:34.462Z,45.19
2023-02-18T00:55:56.481Z,45.53
2023-02-18T01:01:19.179Z,45.37
2023-02-18T01:06:41.060Z,45.31
2023-02-18T01:12:03.254Z,45.26
2023-02-18T01:17:25.058Z,45.19
2023-02-18T01:22:46.888Z,45.57
2023-02-18T01:28:11.540Z,45.10
2023-02-18T01:33:33.595Z,45.21
2023-02-18T01:38:55.428Z,45.34
2023-02-18T01:44:20.805Z,44.97
2023-02-18T01:49:46.298Z,45.06
2023-02-18T01:55:08.038Z,45.06
2023-02-18T02:00:31.200Z,45.32
2023-02-18T02:05:53.012Z,45.08
2023-02-18T02:11:52.499Z,45.50
2023-02-18T02:17:33.440Z,45.07
2023-02-18T02:22:55.134Z,45.39
2023-02-18T02:28:25.678Z,45.44
2023-02-18T02:34:05.989Z,45.40
2023-02-18T02:39:39.978Z,45.39
2023-02-18T02:45:06.669Z,45.04
2023-02-18T02:50:34.648Z,44.97
2023-02-18T02:55:56.490Z,45.37
2023-02-18T03:01:32.526Z,45.30
2023-02-18T03:07:38.209Z,45.25
2023-02-18T03:13:26.929Z,45.01
2023-02-18T03:18:57.457Z,45.09
2023-02-18T03:24:32.805Z,45.02
2023-02-18T03:30:01.685Z,45.08
2023-02-18T03:35:23.991Z,44.93
2023-02-18T03:40:45.798Z,44.83
2023-02-18T03:46:08.481Z,44.66
2023-02-18T03:51:30.740Z,44.91
2023-02-18T03:56:52.473Z,44.61
2023-02-18T04:02:14.281Z,44.79
2023-02-18T04:07:36.357Z,44.34
2023-02-18T04:12:58.194Z,44.64
2023-02-18T04:18:20.444Z,44.27
2023-02-18T04:23:42.261Z,44.17
2023-02-18T04:29:04.102Z,44.37
2023-02-18T04:34:26.258Z,44.14
2023-02-18T04:39:48.007Z,44.20
2023-02-18T04:45:10.045Z,44.36
2023-02-18T04:50:31.904Z,44.29
2023-02-18T04:55:54.680Z,44.16
2023-02-18T05:01:16.620Z,44.15
2023-02-18T05:06:40.142Z,43.95
2023-02-18T05:12:01.905Z,44.24
2023-02-18T05:17:23.674Z,44.24
2023-02-18T05:22:45.440Z,44.26
2023-02-18T05:28:07.335Z,44.05
2023-02-18T05:33:29.126Z,43.72
2023-02-18T05:38:50.952Z,44.16
2023-02-18T05:44:31.055Z,43.88
2023-02-18T05:49:52.896Z,43.83
2023-02-18T05:55:14.921Z,44.08
2023-02-18T06:00:36.766Z,43.67
2023-02-18T06:05:58.609Z,43.79
2023-02-18T06:11:20.444Z,43.61
2023-02-18T06:16:42.266Z,43.56
2023-02-18T06:22:04.854Z,43.43
2023-02-18T06:27:26.762Z,43.72
2023-02-18T06:32:48.498Z,43.56
2023-02-18T06:38:10.266Z,43.37
2023-02-18T06:43:32.522Z,43.52
2023-02-18T06:48:54.294Z,43.38
2023-02-18T06:54:16.017Z,43.06
2023-02-18T06:59:37.752Z,42.35
2023-02-18T07:04:59.626Z,41.81
2023-02-18T07:10:21.457Z,41.36
2023-02-18T07:15:43.179Z,41.32
2023-02-18T07:21:05.105Z,41.18
2023-02-18T07:26:26.902Z,41.08
2023-02-18T07:31:48.895Z,41.38
2023-02-18T07:37:12.557Z,41.19
2023-02-18T07:42:34.347Z,41.47
2023-02-18T07:47:56.108Z,41.44
2023-02-18T07:53:17.959Z,41.43
2023-02-18T07:58:40.188Z,41.56
2023-02-18T08:04:02.041Z,41.56
2023-02-18T08:09:23.873Z,41.59
2023-02-18T08:14:46.251Z,41.55
2023-02-18T08:20:08.692Z,41.60
2023-02-18T08:25:30.791Z,41.69
2023-02-18T08:30:54.284Z,41.49
2023-02-18T08:36:16.164Z,41.52
2023-02-18T08:41:37.935Z,41.65
2023-02-18T08:46:59.677Z,41.13
2023-02-18T08:52:22.318Z,40.48
2023-02-18T08:57:44.166Z,40.15
2023-02-18T09:03:06.452Z,39.32
2023-02-18T09:08:28.694Z,38.98
2023-02-18T09:13:50.514Z,38.93
2023-02-18T09:19:12.285Z,38.82
2023-02-18T09:24:42.180Z,38.78
2023-02-18T09:30:05.592Z,38.48
2023-02-18T09:35:27.405Z,38.54
2023-02-18T09:40:52.253Z,38.22
2023-02-18T09:46:17.037Z,38.56
2023-02-18T09:51:38.875Z,38.75
2023-02-18T09:57:01.817Z,38.89
2023-02-18T10:02:24.621Z,39.35
2023-02-18T10:07:49.429Z,39.47
2023-02-18T10:13:14.893Z,39.59
2023-02-18T10:18:49.386Z,39.61
2023-02-18T10:24:33.937Z,39.48
2023-02-18T10:30:28.351Z,39.84
2023-02-18T10:36:08.042Z,39.42
2023-02-18T10:41:41.888Z,39.69
2023-02-18T10:47:26.776Z,39.45
2023-02-18T10:52:52.491Z,39.49
2023-02-18T10:58:23.541Z,39.59
2023-02-18T11:03:48.361Z,39.91
2023-02-18T11:09:28.235Z,39.72
2023-02-18T11:15:05.118Z,40.19
2023-02-18T11:20:34.329Z,39.90
2023-02-18T11:26:04.928Z,39.48
2023-02-18T11:31:37.513Z,40.18
2023-02-18T11:37:20.076Z,39.89
2023-02-18T11:42:42.083Z,40.35
2023-02-18T11:48:15.115Z,40.14
2023-02-18T11:53:37.869Z,40.15
2023-02-18T11:59:01.642Z,39.96
2023-02-18T12:04:29.978Z,40.22
2023-02-18T12:09:57.192Z,40.28
2023-02-18T12:15:28.320Z,40.19
2023-02-18T12:21:15.513Z,40.08
2023-02-18T12:27:04.327Z,40.29
2023-02-18T12:32:44.087Z,40.25
2023-02-18T12:38:32.840Z,40.37
2023-02-18T12:44:32.353Z,40.25
2023-02-18T12:50:24.134Z,40.72
2023-02-18T12:56:22.894Z,40.84
2023-02-18T13:02:22.654Z,41.35
2023-02-18T13:08:11.084Z,41.68
2023-02-18T13:13:42.444Z,41.88
2023-02-18T13:19:22.474Z,42.01
2023-02-18T13:24:47.906Z,41.85
2023-02-18T13:30:29.280Z,41.85
2023-02-18T13:36:03.994Z,41.67
2023-02-18T13:41:27.486Z,41.18
2023-02-18T13:46:51.078Z,41.06
2023-02-18T13:52:20.637Z,41.54
2023-02-18T13:57:42.881Z,41.61
2023-02-18T14:03:43.449Z,42.09
2023-02-18T14:09:25.729Z,42.38
2023-02-18T14:14:47.761Z,42.72
2023-02-18T14:20:10.358Z,42.38
2023-02-18T14:25:39.953Z,42.10
2023-02-18T14:31:30.036Z,41.46
2023-02-18T14:37:21.567Z,41.26
2023-02-18T14:43:07.631Z,41.20
2023-02-18T14:48:41.628Z,41.05
2023-02-18T14:54:07.457Z,41.29
2023-02-18T14:59:34.874Z,41.48
2023-02-18T15:05:13.265Z,41.41
2023-02-18T15:10:40.661Z,41.56
2023-02-18T15:16:06.372Z,41.76
2023-02-18T15:21:31.640Z,41.86
2023-02-18T15:26:56.764Z,41.97
2023-02-18T15:32:29.448Z,41.75
2023-02-18T15:37:54.753Z,41.71
2023-02-18T15:43:22.693Z,41.99
2023-02-18T15:48:47.426Z,42.04
2023-02-18T15:54:17.188Z,42.02
2023-02-18T15:59:45.992Z,42.08
2023-02-18T16:05:14.174Z,42.04
2023-02-18T16:10:44.564Z,42.02
2023-02-18T16:16:06.759Z,42.46
2023-02-18T16:21:45.167Z,42.39
2023-02-18T16:27:14.900Z,42.70
2023-02-18T16:32:36.781Z,42.86
2023-02-18T16:37:59.206Z,42.58
2023-02-18T16:43:27.139Z,42.84
2023-02-18T16:48:56.063Z,42.51
2023-02-18T16:54:18.562Z,42.52
2023-02-18T16:59:40.376Z,42.82
2023-02-18T17:05:02.148Z,42.61
2023-02-18T17:10:23.949Z,42.68
2023-02-18T17:15:48.660Z,42.59
2023-02-18T17:21:23.590Z,42.91
2023-02-18T17:26:45.546Z,43.17
2023-02-18T17:32:08.294Z,42.94
2023-02-18T17:37:30.706Z,43.21
2023-02-18T17:42:54.791Z,42.84
2023-02-18T17:48:16.720Z,42.12
2023-02-18T17:53:38.491Z,42.15
2023-02-18T17:59:00.747Z,42.03
2023-02-18T18:04:22.821Z,42.47
2023-02-18T18:09:44.803Z,42.61
2023-02-18T18:15:27.274Z,42.49
2023-02-18T18:20:53.113Z,42.80
2023-02-18T18:26:14.918Z,42.98
2023-02-18T18:31:37.723Z,43.17
2023-02-18T18:36:59.719Z,43.54
2023-02-18T18:42:24.598Z,43.30
2023-02-18T18:47:47.881Z,43.84
2023-02-18T18:53:26.012Z,44.37
2023-02-18T18:58:48.966Z,44.07
2023-02-18T19:04:10.745Z,44.28
2023-02-18T19:09:32.522Z,44.04
2023-02-18T19:14:54.270Z,44.04
2023-02-18T19:20:19.261Z,44.72
2023-02-18T19:25:41.153Z,45.09
2023-02-18T19:31:07.015Z,44.62
2023-02-18T19:36:28.908Z,44.15
2023-02-18T19:41:50.661Z,43.98
2023-02-18T19:47:12.467Z,44.19
2023-02-18T19:52:34.992Z,43.87
2023-02-18T19:57:56.915Z,43.65
2023-02-18T20:03:18.781Z,43.92
2023-02-18T20:08:40.541Z,44.23
2023-02-18T20:14:02.326Z,44.13
2023-02-18T20:19:25.286Z,44.37
2023-02-18T20:24:48.153Z,44.34
2023-02-18T20:30:10.859Z,44.71
2023-02-18T20:35:32.779Z,44.72
2023-02-18T20:40:54.595Z,44.42
2023-02-18T20:46:20.933Z,44.21
2023-02-18T20:51:43.711Z,44.31
2023-02-18T20:57:05.518Z,43.85
2023-02-18T21:02:28.319Z,43.87
2023-02-18T21:07:50.094Z,43.91
2023-02-18T21:13:11.892Z,44.11
2023-02-18T21:18:34.287Z,44.04
2023-02-18T21:23:56.114Z,43.99
2023-02-18T21:29:17.995Z,44.03
2023-02-18T21:34:39.973Z,43.83
2023-02-18T21:40:02.385Z,43.77
2023-02-18T21:45:24.432Z,43.17
2023-02-18T21:50:46.223Z,43.88
2023-02-18T21:56:11.956Z,42.78
2023-02-18T22:01:33.724Z,43.01
2023-02-18T22:06:55.503Z,42.75
2023-02-18T22:12:17.669Z,42.41
2023-02-18T22:17:39.490Z,42.44
2023-02-18T22:23:01.235Z,42.71
2023-02-18T22:28:22.959Z,42.69
2023-02-18T22:33:44.696Z,42.41
2023-02-18T22:39:07.740Z,42.79
2023-02-18T22:44:29.511Z,42.73
2023-02-18T22:49:51.257Z,42.40
2023-02-18T22:55:13.047Z,42.48
2023-02-18T23:00:34.834Z,42.51
2023-02-18T23:06:05.335Z,42.66
2023-02-18T23:11:27.314Z,42.87
2023-02-18T23:17:10.596Z,42.49
2023-02-18T23:22:37.977Z,42.40
2023-02-18T23:27:59.740Z,42.64
2023-02-18T23:33:21.504Z,42.40
2023-02-18T23:38:43.380Z,42.41
2023-02-18T23:44:07.507Z,42.53
2023-02-18T23:49:29.366Z,42.41
2023-02-18T23:54:51.231Z,42.65
